SWV weather

CLOSED Shikarpur Airport
Shikarpur, Sindh, Pakistan

Public forecast

Using degrees Celsius for public forecast. Weather courtesy of forecast.io.

METAR (pilot weather report)

Report is more than 6 hours old.

Closest report is Shaikh Zaid Airport, 47.7 nm (88.3 km) S. Retrieved 2013/02/25 03:16 UTC (7 years ago):

OPRK 250316Z 00000 0800 MIST SKC 13/11 1019

TAF (pilot weather forecast)

Forecast is more than 12 hours old.

Closest forecast is Shaikh Zaid Airport, 47.7 nm (88.3 km) S. Retrieved 2019/09/21 18:00 UTC (17 hours ago):

TAF OPRK 211600Z 2118/2212 18010KT 5000 FU FEW120 TN26/2201Z TX37/2210Z